createdAt,value
2022-10-05T00:00:18.974Z,9.678072
2022-10-05T00:01:19.024Z,9.678123
2022-10-05T00:02:18.965Z,9.678174
2022-10-05T00:03:18.950Z,9.678115
2022-10-05T00:04:18.942Z,9.678114
2022-10-05T00:05:19.042Z,9.678087
2022-10-05T00:06:18.943Z,9.678019
2022-10-05T00:07:18.924Z,9.678121
2022-10-05T00:08:18.931Z,9.678101
2022-10-05T00:09:18.910Z,9.678129
2022-10-05T00:10:18.924Z,9.678183
2022-10-05T00:11:18.926Z,9.678129
2022-10-05T00:12:18.881Z,9.678094
2022-10-05T00:13:18.886Z,9.678080
2022-10-05T00:14:18.862Z,9.678190
2022-10-05T00:15:18.885Z,9.678253
2022-10-05T00:16:18.892Z,9.678184
2022-10-05T00:17:18.831Z,9.678185
2022-10-05T00:18:18.829Z,9.678113
2022-10-05T00:19:18.812Z,9.678145
2022-10-05T00:20:18.841Z,9.678148
2022-10-05T00:21:18.800Z,9.678175
2022-10-05T00:22:18.829Z,9.678144
2022-10-05T00:23:18.809Z,9.678110
2022-10-05T00:24:18.793Z,9.678135
2022-10-05T00:25:18.777Z,9.678248
2022-10-05T00:26:18.784Z,9.678163
2022-10-05T00:27:18.755Z,9.678148
2022-10-05T00:28:18.803Z,9.678141
2022-10-05T00:29:18.761Z,9.678197
2022-10-05T00:30:18.732Z,9.678219
2022-10-05T00:31:18.857Z,9.678189
2022-10-05T00:32:18.707Z,9.678109
2022-10-05T00:33:18.698Z,9.678104
2022-10-05T00:34:18.685Z,9.678140
2022-10-05T00:35:18.694Z,9.678281
2022-10-05T00:36:18.688Z,9.678185
2022-10-05T00:37:18.696Z,9.678136
2022-10-05T00:38:18.701Z,9.678121
2022-10-05T00:39:18.641Z,9.678108
2022-10-05T00:40:18.653Z,9.678108
2022-10-05T00:41:18.658Z,9.678073
2022-10-05T00:42:18.614Z,9.678105
2022-10-05T00:43:18.652Z,9.678158
2022-10-05T00:44:18.609Z,9.678105
2022-10-05T00:45:18.601Z,9.678085
2022-10-05T00:46:18.677Z,9.678006
2022-10-05T00:47:18.589Z,9.678099
2022-10-05T00:48:18.572Z,9.678111
2022-10-05T00:49:18.588Z,9.678153
2022-10-05T00:50:18.558Z,9.678072
2022-10-05T00:51:18.553Z,9.678135
2022-10-05T00:52:18.625Z,9.678102
2022-10-05T00:53:18.547Z,9.678116
2022-10-05T00:54:18.567Z,9.678120
2022-10-05T00:55:18.509Z,9.678038
2022-10-05T00:56:18.532Z,9.678006
2022-10-05T00:57:18.501Z,9.678015
2022-10-05T00:58:18.491Z,9.678065
2022-10-05T00:59:18.508Z,9.678059
2022-10-05T01:00:18.468Z,9.678140
2022-10-05T01:01:18.522Z,9.678104
2022-10-05T01:02:18.507Z,9.678169
2022-10-05T01:03:18.446Z,9.678167
2022-10-05T01:04:18.436Z,9.678120
2022-10-05T01:05:18.453Z,9.678075
2022-10-05T01:06:18.423Z,9.678092
2022-10-05T01:07:18.409Z,9.678139
2022-10-05T01:08:18.410Z,9.678094
2022-10-05T01:09:18.396Z,9.678061
2022-10-05T01:10:18.413Z,9.678123
2022-10-05T01:11:18.424Z,9.678081
2022-10-05T01:12:18.374Z,9.678087
2022-10-05T01:13:18.355Z,9.678102
2022-10-05T01:14:18.357Z,9.678096
2022-10-05T01:15:18.341Z,9.678146
2022-10-05T01:16:18.367Z,9.678084
2022-10-05T01:17:18.375Z,9.678114
2022-10-05T01:18:18.331Z,9.678152
2022-10-05T01:19:18.310Z,9.678081
2022-10-05T01:20:18.328Z,9.678161
2022-10-05T01:21:18.317Z,9.678207
2022-10-05T01:22:18.303Z,9.678226
2022-10-05T01:23:18.303Z,9.678245
2022-10-05T01:24:18.264Z,9.678189
2022-10-05T01:25:18.856Z,9.678083
2022-10-05T01:26:18.249Z,9.678103
2022-10-05T01:27:18.235Z,9.678102
2022-10-05T01:28:18.300Z,9.678113
2022-10-05T01:29:18.236Z,9.678179
2022-10-05T01:30:18.200Z,9.678151
2022-10-05T01:31:18.210Z,9.678099
2022-10-05T01:32:18.195Z,9.678107
2022-10-05T01:33:18.181Z,9.678140
2022-10-05T01:34:18.190Z,9.678145
2022-10-05T01:35:18.193Z,9.678067
2022-10-05T01:36:18.163Z,9.678092
2022-10-05T01:37:18.163Z,9.678125
2022-10-05T01:38:18.136Z,9.678172
2022-10-05T01:39:18.125Z,9.678182
2022-10-05T01:40:18.120Z,9.678251
2022-10-05T01:41:18.159Z,9.678168
2022-10-05T01:42:18.114Z,9.678080
2022-10-05T01:43:18.143Z,9.677948
2022-10-05T01:44:18.085Z,9.678069
2022-10-05T01:45:18.083Z,9.678119
2022-10-05T01:46:18.154Z,9.678068
2022-10-05T01:47:18.070Z,9.678073
2022-10-05T01:48:18.069Z,9.678091
2022-10-05T01:49:18.073Z,9.678111
2022-10-05T01:50:18.036Z,9.678164
2022-10-05T01:51:18.019Z,9.678185
2022-10-05T01:52:18.035Z,9.678161
2022-10-05T01:53:18.012Z,9.678127
2022-10-05T01:54:18.000Z,9.678148
2022-10-05T01:55:18.012Z,9.678102
2022-10-05T01:56:17.992Z,9.678102
2022-10-05T01:57:17.994Z,9.678128
2022-10-05T01:58:17.975Z,9.678085
2022-10-05T01:59:17.960Z,9.678022
2022-10-05T02:00:17.945Z,9.678044
2022-10-05T02:01:18.091Z,9.678068
2022-10-05T02:02:17.986Z,9.678123
2022-10-05T02:03:17.923Z,9.678128
2022-10-05T02:04:37.271Z,9.678121
2022-10-05T02:05:18.905Z,9.678048
2022-10-05T02:06:17.890Z,9.678063
2022-10-05T02:07:17.903Z,9.678068
2022-10-05T02:08:17.871Z,9.678043
2022-10-05T02:09:17.859Z,9.678067
2022-10-05T02:10:17.898Z,9.678095
2022-10-05T02:11:17.857Z,9.678100
2022-10-05T02:12:17.833Z,9.678037
2022-10-05T02:13:17.866Z,9.678039
2022-10-05T02:14:17.832Z,9.678050
2022-10-05T02:15:17.813Z,9.678053
2022-10-05T02:16:17.881Z,9.678048
2022-10-05T02:17:17.794Z,9.678003
2022-10-05T02:18:17.793Z,9.678016
2022-10-05T02:19:17.799Z,9.678066
2022-10-05T02:20:17.769Z,9.678084
2022-10-05T02:21:17.762Z,9.678093
2022-10-05T02:22:17.761Z,9.678108
2022-10-05T02:23:17.745Z,9.678059
2022-10-05T02:24:17.728Z,9.678047
2022-10-05T02:25:17.749Z,9.678080
2022-10-05T02:26:17.731Z,9.678097
2022-10-05T02:27:17.703Z,9.678079
2022-10-05T02:28:17.767Z,9.678095
2022-10-05T02:29:17.693Z,9.678111
2022-10-05T02:30:17.691Z,9.678099
2022-10-05T02:31:17.713Z,9.678124
2022-10-05T02:32:17.894Z,9.678118
2022-10-05T02:33:17.727Z,9.678130
2022-10-05T02:34:17.650Z,9.678122
2022-10-05T02:35:17.643Z,9.678122
2022-10-05T02:36:17.664Z,9.678103
2022-10-05T02:37:17.611Z,9.678133
2022-10-05T02:38:17.612Z,9.678116
2022-10-05T02:39:17.600Z,9.678074
2022-10-05T02:40:17.583Z,9.678076
2022-10-05T02:41:17.594Z,9.678144
2022-10-05T02:42:18.444Z,9.678145
2022-10-05T02:43:17.571Z,9.678137
2022-10-05T02:44:17.561Z,9.678112
2022-10-05T02:45:17.561Z,9.678105
2022-10-05T02:46:17.598Z,9.678075
2022-10-05T02:47:17.538Z,9.678096
2022-10-05T02:48:17.596Z,9.678088
2022-10-05T02:49:17.544Z,9.678106
2022-10-05T02:50:17.516Z,9.678075
2022-10-05T02:51:17.495Z,9.678107
2022-10-05T02:52:17.498Z,9.678107
2022-10-05T02:53:17.507Z,9.678100
2022-10-05T02:54:17.483Z,9.678105
2022-10-05T02:55:17.491Z,9.678135
2022-10-05T02:56:17.469Z,9.678111
2022-10-05T02:57:17.455Z,9.678133
2022-10-05T02:58:17.451Z,9.678124
2022-10-05T02:59:17.455Z,9.678131
2022-10-05T03:00:17.464Z,9.678154
2022-10-05T03:01:17.544Z,9.678143
2022-10-05T03:02:17.556Z,9.678098
2022-10-05T03:03:17.408Z,9.678112
2022-10-05T03:04:17.402Z,9.678142
2022-10-05T03:05:17.444Z,9.678123
2022-10-05T03:06:17.375Z,9.678178
2022-10-05T03:07:17.402Z,9.678180
2022-10-05T03:08:17.358Z,9.678197
2022-10-05T03:09:17.357Z,9.678143
2022-10-05T03:10:17.370Z,9.678142
2022-10-05T03:11:17.385Z,9.678171
2022-10-05T03:12:17.341Z,9.678149
2022-10-05T03:13:17.342Z,9.678108
2022-10-05T03:14:17.316Z,9.678104
2022-10-05T03:15:17.309Z,9.678184
2022-10-05T03:16:17.390Z,9.678188
2022-10-05T03:17:17.345Z,9.678164
2022-10-05T03:18:17.281Z,9.678117
2022-10-05T03:19:17.278Z,9.678209
2022-10-05T03:20:17.300Z,9.678183
2022-10-05T03:21:17.273Z,9.678154
2022-10-05T03:22:17.253Z,9.678143
2022-10-05T03:23:17.340Z,9.678137
2022-10-05T03:24:17.280Z,9.678119
2022-10-05T03:25:17.270Z,9.678159
2022-10-05T03:26:17.229Z,9.678180
2022-10-05T03:27:17.228Z,9.678134
2022-10-05T03:28:17.300Z,9.678103
2022-10-05T03:29:17.209Z,9.678067
2022-10-05T03:30:17.220Z,9.678122
2022-10-05T03:31:17.269Z,9.678116
2022-10-05T03:32:17.200Z,9.678069
2022-10-05T03:33:17.168Z,9.678042
2022-10-05T03:34:17.165Z,9.678069
2022-10-05T03:35:17.162Z,9.678048
2022-10-05T03:36:17.157Z,9.678034
2022-10-05T03:37:17.171Z,9.678089
2022-10-05T03:38:17.142Z,9.678102
2022-10-05T03:39:17.127Z,9.678078
2022-10-05T03:40:17.123Z,9.678085
2022-10-05T03:41:17.120Z,9.678072
2022-10-05T03:42:17.117Z,9.678107
2022-10-05T03:43:17.117Z,9.678087
2022-10-05T03:44:17.102Z,9.678101
2022-10-05T03:45:17.076Z,9.678093
2022-10-05T03:46:17.146Z,9.678086
2022-10-05T03:47:17.127Z,9.678106
2022-10-05T03:48:17.058Z,9.678072
2022-10-05T03:49:17.078Z,9.678053
2022-10-05T03:50:17.047Z,9.678028
2022-10-05T03:51:17.043Z,9.678050
2022-10-05T03:52:17.029Z,9.678048
2022-10-05T03:53:17.039Z,9.678058
2022-10-05T03:54:17.081Z,9.678103
2022-10-05T03:55:17.002Z,9.678095
2022-10-05T03:56:17.017Z,9.678044
2022-10-05T03:57:16.976Z,9.678057
2022-10-05T03:58:17.003Z,9.678072
2022-10-05T03:59:16.968Z,9.678084
2022-10-05T04:00:16.958Z,9.678087
2022-10-05T04:01:17.078Z,9.678095
2022-10-05T04:02:17.025Z,9.678097
2022-10-05T04:03:16.975Z,9.678071
2022-10-05T04:04:16.952Z,9.678081
2022-10-05T04:05:16.921Z,9.678075
2022-10-05T04:06:16.959Z,9.678046
2022-10-05T04:07:16.914Z,9.678034
2022-10-05T04:08:16.894Z,9.678074
2022-10-05T04:09:16.916Z,9.678054
2022-10-05T04:10:16.896Z,9.678067
2022-10-05T04:11:16.880Z,9.678048
2022-10-05T04:12:16.879Z,9.678094
2022-10-05T04:13:16.894Z,9.678089
2022-10-05T04:14:16.846Z,9.678082
2022-10-05T04:15:19.014Z,9.678112
2022-10-05T04:16:16.883Z,9.678025
2022-10-05T04:17:16.881Z,9.678057
2022-10-05T04:18:16.824Z,9.678082
2022-10-05T04:19:16.823Z,9.678104
2022-10-05T04:20:16.795Z,9.678080
2022-10-05T04:21:21.342Z,9.678102
2022-10-05T04:22:17.819Z,9.678090
2022-10-05T04:23:16.798Z,9.678117
2022-10-05T04:24:16.762Z,9.678107
2022-10-05T04:25:16.858Z,9.678079
2022-10-05T04:26:16.755Z,9.678098
2022-10-05T04:27:16.756Z,9.678057
2022-10-05T04:28:16.777Z,9.678056
2022-10-05T04:29:16.748Z,9.678043
2022-10-05T04:30:16.743Z,9.677990
2022-10-05T04:31:16.768Z,9.678024
2022-10-05T04:32:16.700Z,9.678019
2022-10-05T04:33:16.705Z,9.678001
2022-10-05T04:34:16.758Z,9.678059
2022-10-05T04:35:16.728Z,9.678063
2022-10-05T04:36:16.684Z,9.678061
2022-10-05T04:37:16.687Z,9.678097
2022-10-05T04:38:16.667Z,9.678072
2022-10-05T04:39:16.648Z,9.678065
2022-10-05T04:40:16.648Z,9.678086
2022-10-05T04:41:16.675Z,9.678077
2022-10-05T04:42:16.631Z,9.678045
2022-10-05T04:43:16.615Z,9.678033
2022-10-05T04:44:16.615Z,9.678049
2022-10-05T04:45:16.605Z,9.678048
2022-10-05T04:46:16.618Z,9.678090
2022-10-05T04:47:16.614Z,9.678082
2022-10-05T04:48:16.580Z,9.678058
2022-10-05T04:49:16.571Z,9.678060
2022-10-05T04:50:16.569Z,9.678055
2022-10-05T04:51:16.562Z,9.678061
2022-10-05T04:52:16.565Z,9.678081
2022-10-05T04:53:16.551Z,9.678088
2022-10-05T04:54:16.903Z,9.678105
2022-10-05T04:55:16.538Z,9.678101
2022-10-05T04:56:16.579Z,9.678105
2022-10-05T04:57:16.630Z,9.678089
2022-10-05T04:58:16.568Z,9.678070
2022-10-05T04:59:17.396Z,9.678105
2022-10-05T05:00:16.487Z,9.678086
2022-10-05T05:01:16.558Z,9.678110
2022-10-05T05:02:16.472Z,9.678104
2022-10-05T05:03:16.461Z,9.678104
2022-10-05T05:04:16.461Z,9.678089
2022-10-05T05:05:16.545Z,9.678097
2022-10-05T05:06:18.061Z,9.678113
2022-10-05T05:07:16.437Z,9.678074
2022-10-05T05:08:16.431Z,9.678110
2022-10-05T05:09:16.420Z,9.678098
2022-10-05T05:10:16.400Z,9.678046
2022-10-05T05:11:20.076Z,9.678071
2022-10-05T05:12:17.388Z,9.678105
2022-10-05T05:13:16.379Z,9.678072
2022-10-05T05:14:16.500Z,9.678103
2022-10-05T05:15:16.426Z,9.678095
2022-10-05T05:16:16.517Z,9.678074
2022-10-05T05:17:16.386Z,9.678046
2022-10-05T05:18:16.377Z,9.678097
2022-10-05T05:19:16.348Z,9.678063
2022-10-05T05:20:16.337Z,9.678059
2022-10-05T05:21:16.328Z,9.678106
2022-10-05T05:22:16.322Z,9.678106
2022-10-05T05:23:16.333Z,9.678079
2022-10-05T05:24:16.317Z,9.678076
2022-10-05T05:25:16.286Z,9.678078
2022-10-05T05:26:16.519Z,9.678093
2022-10-05T05:27:16.294Z,9.678094
2022-10-05T05:28:16.399Z,9.678113
2022-10-05T05:29:16.266Z,9.678144
2022-10-05T05:30:16.270Z,9.678128
2022-10-05T05:31:16.329Z,9.678084
2022-10-05T05:32:16.242Z,9.678141
2022-10-05T05:33:16.249Z,9.678151
2022-10-05T05:34:16.228Z,9.678083
2022-10-05T05:35:16.251Z,9.678149
2022-10-05T05:36:20.751Z,9.678138
2022-10-05T05:37:17.201Z,9.678091
2022-10-05T05:38:16.207Z,9.678054
2022-10-05T05:39:16.207Z,9.678123
2022-10-05T05:40:16.193Z,9.678101
2022-10-05T05:41:16.201Z,9.678123
2022-10-05T05:42:16.155Z,9.678090
2022-10-05T05:43:16.161Z,9.678082
2022-10-05T05:44:16.145Z,9.678121
2022-10-05T05:45:16.207Z,9.678101
2022-10-05T05:46:16.195Z,9.678056
2022-10-05T05:47:16.227Z,9.678093
2022-10-05T05:48:16.122Z,9.678036
2022-10-05T05:49:16.146Z,9.678046
2022-10-05T05:50:16.138Z,9.678052
2022-10-05T05:51:16.117Z,9.678065
2022-10-05T05:52:16.097Z,9.678063
2022-10-05T05:53:16.104Z,9.678084
2022-10-05T05:54:16.075Z,9.678117
2022-10-05T05:55:16.070Z,9.678066
2022-10-05T05:56:16.099Z,9.678082
2022-10-05T05:57:16.063Z,9.678030
2022-10-05T05:58:16.051Z,9.678014
2022-10-05T05:59:16.323Z,9.678053
2022-10-05T06:00:16.063Z,9.678152
2022-10-05T06:01:30.928Z,9.678110
2022-10-05T06:02:17.278Z,9.678083
2022-10-05T06:03:16.122Z,9.678094
2022-10-05T06:04:16.017Z,9.678111
2022-10-05T06:05:15.989Z,9.678126
2022-10-05T06:06:16.009Z,9.678016
2022-10-05T06:07:15.985Z,9.678092
2022-10-05T06:08:15.979Z,9.678185
2022-10-05T06:09:15.978Z,9.678190
2022-10-05T06:10:15.972Z,9.678168
2022-10-05T06:11:15.964Z,9.678196
2022-10-05T06:12:15.963Z,9.678168
2022-10-05T06:13:15.969Z,9.678115
2022-10-05T06:14:15.972Z,9.678107
2022-10-05T06:15:15.924Z,9.678102
2022-10-05T06:16:15.988Z,9.678086
2022-10-05T06:17:15.905Z,9.678115
2022-10-05T06:18:15.911Z,9.678113
2022-10-05T06:19:15.912Z,9.678135
2022-10-05T06:20:15.882Z,9.678158
2022-10-05T06:21:15.909Z,9.678154
2022-10-05T06:22:15.856Z,9.678157
2022-10-05T06:23:15.882Z,9.678138
2022-10-05T06:24:15.878Z,9.678168
2022-10-05T06:25:15.850Z,9.678152
2022-10-05T06:26:15.828Z,9.678131
2022-10-05T06:27:15.836Z,9.678112
2022-10-05T06:28:15.953Z,9.678095
2022-10-05T06:29:15.818Z,9.678131
2022-10-05T06:30:15.822Z,9.678172
2022-10-05T06:31:15.854Z,9.678130
2022-10-05T06:32:15.792Z,9.678089
2022-10-05T06:33:15.787Z,9.678181
2022-10-05T06:34:15.765Z,9.678186
2022-10-05T06:35:15.790Z,9.678067
2022-10-05T06:36:15.736Z,9.678112
2022-10-05T06:37:15.738Z,9.678114
2022-10-05T06:38:15.725Z,9.678143
2022-10-05T06:39:15.744Z,9.678117
2022-10-05T06:40:15.705Z,9.678162
2022-10-05T06:41:15.740Z,9.678108
2022-10-05T06:42:15.697Z,9.678160
2022-10-05T06:43:15.694Z,9.678156
2022-10-05T06:44:15.696Z,9.678154
2022-10-05T06:45:15.689Z,9.678124
2022-10-05T06:46:15.752Z,9.678139
2022-10-05T06:47:15.669Z,9.678172
2022-10-05T06:48:15.678Z,9.678102
2022-10-05T06:49:15.649Z,9.678186
2022-10-05T06:50:15.636Z,9.678093
2022-10-05T06:51:15.613Z,9.678133
2022-10-05T06:52:15.630Z,9.678169
2022-10-05T06:53:15.626Z,9.678124
2022-10-05T06:54:15.608Z,9.678109
2022-10-05T06:55:15.594Z,9.678030
2022-10-05T06:56:15.581Z,9.678068
2022-10-05T06:57:15.596Z,9.678088
2022-10-05T06:58:15.582Z,9.678082
2022-10-05T06:59:15.600Z,9.678076
2022-10-05T07:00:15.551Z,9.678098
2022-10-05T07:01:15.648Z,9.678106
2022-10-05T07:02:15.593Z,9.678108
2022-10-05T07:03:15.543Z,9.678119
2022-10-05T07:04:23.075Z,9.678118
2022-10-05T07:05:15.549Z,9.678087
2022-10-05T07:06:15.494Z,9.678101
2022-10-05T07:07:15.482Z,9.678070
2022-10-05T07:08:15.531Z,9.678100
2022-10-05T07:09:15.485Z,9.678121
2022-10-05T07:10:15.456Z,9.678122
2022-10-05T07:11:15.457Z,9.678104
2022-10-05T07:12:15.450Z,9.678083
2022-10-05T07:13:15.424Z,9.678079
2022-10-05T07:14:15.478Z,9.678068
2022-10-05T07:15:15.418Z,9.678148
2022-10-05T07:16:15.445Z,9.678156
2022-10-05T07:17:15.408Z,9.678081
2022-10-05T07:18:15.388Z,9.678118
2022-10-05T07:19:15.374Z,9.678085
2022-10-05T07:20:15.384Z,9.678124
2022-10-05T07:21:15.348Z,9.678087
2022-10-05T07:22:15.348Z,9.678092
2022-10-05T07:23:15.348Z,9.678087
2022-10-05T07:24:15.332Z,9.678088
2022-10-05T07:25:15.315Z,9.678093
2022-10-05T07:26:15.341Z,9.678071
2022-10-05T07:27:15.306Z,9.678095
2022-10-05T07:28:15.369Z,9.678081
2022-10-05T07:29:15.297Z,9.678101
2022-10-05T07:30:15.292Z,9.678105
2022-10-05T07:31:15.311Z,9.678092
2022-10-05T07:32:15.318Z,9.678093
2022-10-05T07:33:15.262Z,9.678098
2022-10-05T07:34:15.267Z,9.678087
2022-10-05T07:35:15.254Z,9.678043
2022-10-05T07:36:15.242Z,9.678036
2022-10-05T07:37:15.228Z,9.678046
2022-10-05T07:38:15.245Z,9.678082
2022-10-05T07:39:15.237Z,9.678041
2022-10-05T07:40:15.249Z,9.678019
2022-10-05T07:41:15.189Z,9.678041
2022-10-05T07:42:15.188Z,9.677966
2022-10-05T07:43:15.201Z,9.678009
2022-10-05T07:44:15.169Z,9.678043
2022-10-05T07:45:15.182Z,9.678015
2022-10-05T07:46:15.248Z,9.678049
2022-10-05T07:47:15.148Z,9.678068
2022-10-05T07:48:15.164Z,9.678050
2022-10-05T07:49:15.143Z,9.677996
2022-10-05T07:50:15.222Z,9.678002
2022-10-05T07:51:15.122Z,9.678066
2022-10-05T07:52:15.107Z,9.678056
2022-10-05T07:53:15.125Z,9.678035
2022-10-05T07:54:15.082Z,9.677978
2022-10-05T07:55:15.090Z,9.678050
2022-10-05T07:56:15.065Z,9.678101
2022-10-05T07:57:15.062Z,9.678135
2022-10-05T07:58:15.049Z,9.678094
2022-10-05T07:59:15.067Z,9.677994
2022-10-05T08:00:15.094Z,9.678020
2022-10-05T08:01:15.044Z,9.678090
2022-10-05T08:02:15.329Z,9.678098
2022-10-05T08:03:15.134Z,9.678082
2022-10-05T08:04:15.006Z,9.678100
2022-10-05T08:05:15.005Z,9.678107
2022-10-05T08:06:14.980Z,9.678130
2022-10-05T08:07:15.006Z,9.678162
2022-10-05T08:08:16.863Z,9.678121
2022-10-05T08:09:15.008Z,9.678051
2022-10-05T08:10:14.958Z,9.678038
2022-10-05T08:11:14.980Z,9.678078
2022-10-05T08:12:14.937Z,9.678019
2022-10-05T08:13:14.919Z,9.678037
2022-10-05T08:14:14.918Z,9.678033
2022-10-05T08:15:14.906Z,9.678073
2022-10-05T08:16:15.013Z,9.678063
2022-10-05T08:17:14.911Z,9.678125
2022-10-05T08:18:14.933Z,9.678062
2022-10-05T08:19:14.867Z,9.678069
2022-10-05T08:20:14.872Z,9.678073
2022-10-05T08:21:14.884Z,9.678008
2022-10-05T08:22:14.845Z,9.678053
2022-10-05T08:23:14.875Z,9.678082
2022-10-05T08:24:14.963Z,9.678067
2022-10-05T08:25:14.834Z,9.678071
2022-10-05T08:26:14.830Z,9.678085
2022-10-05T08:27:14.831Z,9.678071
2022-10-05T08:28:14.839Z,9.678079
2022-10-05T08:29:14.908Z,9.678052
2022-10-05T08:30:14.804Z,9.678049
2022-10-05T08:31:14.939Z,9.678061
2022-10-05T08:32:14.840Z,9.678075
2022-10-05T08:33:14.765Z,9.678076
2022-10-05T08:34:14.748Z,9.678048
2022-10-05T08:35:14.741Z,9.678061
2022-10-05T08:36:14.741Z,9.678011
2022-10-05T08:37:14.782Z,9.677991
2022-10-05T08:38:14.722Z,9.677981
2022-10-05T08:39:14.719Z,9.677998
2022-10-05T08:40:14.712Z,9.678013
2022-10-05T08:41:14.692Z,9.678031
2022-10-05T08:42:14.708Z,9.678089
2022-10-05T08:43:14.782Z,9.678041
2022-10-05T08:44:14.670Z,9.678080
2022-10-05T08:45:14.664Z,9.678059
2022-10-05T08:46:14.764Z,9.678022
2022-10-05T08:47:14.644Z,9.678018
2022-10-05T08:48:14.671Z,9.678048
2022-10-05T08:49:14.627Z,9.678061
2022-10-05T08:50:14.633Z,9.678001
2022-10-05T08:51:14.615Z,9.677996
2022-10-05T08:52:22.112Z,9.677996
2022-10-05T08:53:14.618Z,9.677957
2022-10-05T08:54:14.642Z,9.678015
2022-10-05T08:55:14.577Z,9.678019
2022-10-05T08:56:19.767Z,9.678037
2022-10-05T08:57:15.560Z,9.678012
2022-10-05T08:58:14.549Z,9.678061
2022-10-05T08:59:14.540Z,9.678102
2022-10-05T09:00:14.576Z,9.678007
2022-10-05T09:01:14.563Z,9.678004
2022-10-05T09:02:14.571Z,9.678060
2022-10-05T09:03:14.531Z,9.678047
2022-10-05T09:04:14.515Z,9.678061
2022-10-05T09:05:14.516Z,9.678096
2022-10-05T09:06:14.537Z,9.678053
2022-10-05T09:07:14.518Z,9.678039
2022-10-05T09:08:14.494Z,9.678006
2022-10-05T09:09:14.462Z,9.678042
2022-10-05T09:10:14.544Z,9.678098
2022-10-05T09:11:14.498Z,9.678077
2022-10-05T09:12:14.465Z,9.678048
2022-10-05T09:13:14.428Z,9.678026
2022-10-05T09:14:14.430Z,9.678058
2022-10-05T09:15:25.484Z,9.678068
2022-10-05T09:16:15.443Z,9.678072
2022-10-05T09:17:14.442Z,9.678102
2022-10-05T09:18:14.435Z,9.678089
2022-10-05T09:19:14.392Z,9.678081
2022-10-05T09:20:14.383Z,9.678068
2022-10-05T09:21:14.386Z,9.678039
2022-10-05T09:22:14.449Z,9.678080
2022-10-05T09:23:14.356Z,9.678084
2022-10-05T09:24:14.347Z,9.678060
2022-10-05T09:25:14.364Z,9.678079
2022-10-05T09:26:14.325Z,9.678069
2022-10-05T09:27:14.343Z,9.678058
2022-10-05T09:28:14.356Z,9.678050
2022-10-05T09:29:14.305Z,9.678070
2022-10-05T09:30:14.376Z,9.678082
2022-10-05T09:31:14.383Z,9.678059
2022-10-05T09:32:16.473Z,9.678081
2022-10-05T09:33:14.273Z,9.678104
2022-10-05T09:34:14.268Z,9.678097
2022-10-05T09:35:14.260Z,9.678094
2022-10-05T09:36:14.250Z,9.678100
2022-10-05T09:37:14.237Z,9.678094
2022-10-05T09:38:14.254Z,9.678108
2022-10-05T09:39:14.293Z,9.678114
2022-10-05T09:40:14.223Z,9.678058
2022-10-05T09:41:14.215Z,9.678059
2022-10-05T09:42:14.192Z,9.678149
2022-10-05T09:43:14.200Z,9.678134
2022-10-05T09:44:15.001Z,9.678076
2022-10-05T09:45:18.973Z,9.678128
2022-10-05T09:46:15.239Z,9.678128
2022-10-05T09:47:14.214Z,9.678149
2022-10-05T09:48:14.222Z,9.678182
2022-10-05T09:49:14.248Z,9.678095
2022-10-05T09:50:14.126Z,9.678135
2022-10-05T09:51:14.113Z,9.678088
2022-10-05T09:52:18.793Z,9.678175
2022-10-05T09:53:15.118Z,9.678125
2022-10-05T09:54:14.100Z,9.678118
2022-10-05T09:55:14.081Z,9.678180
2022-10-05T09:56:14.084Z,9.678139
2022-10-05T09:57:14.067Z,9.678141
2022-10-05T09:58:14.059Z,9.678114
2022-10-05T09:59:14.306Z,9.678107
2022-10-05T10:00:14.042Z,9.678102
2022-10-05T10:01:32.789Z,9.678094
2022-10-05T10:02:15.156Z,9.678082
2022-10-05T10:03:14.097Z,9.678097
2022-10-05T10:04:14.016Z,9.678107
2022-10-05T10:05:14.020Z,9.678091
2022-10-05T10:06:14.028Z,9.678102
2022-10-05T10:07:13.979Z,9.678078
2022-10-05T10:08:14.171Z,9.678069
2022-10-05T10:09:13.966Z,9.678074
2022-10-05T10:10:13.963Z,9.678045
2022-10-05T10:11:13.977Z,9.678054
2022-10-05T10:12:13.947Z,9.678089
2022-10-05T10:13:13.937Z,9.678089
2022-10-05T10:14:14.050Z,9.678120
2022-10-05T10:15:13.924Z,9.678119
2022-10-05T10:16:14.049Z,9.678079
2022-10-05T10:17:13.920Z,9.678093
2022-10-05T10:18:13.892Z,9.678067
2022-10-05T10:19:13.900Z,9.678076
2022-10-05T10:20:13.910Z,9.678091
2022-10-05T10:21:13.882Z,9.678111
2022-10-05T10:22:13.910Z,9.678098
2022-10-05T10:23:13.845Z,9.678097
2022-10-05T10:24:13.832Z,9.678091
2022-10-05T10:25:13.836Z,9.678103
2022-10-05T10:26:13.825Z,9.678086
2022-10-05T10:27:13.833Z,9.678111
2022-10-05T10:28:13.928Z,9.678157
2022-10-05T10:29:13.841Z,9.678144
2022-10-05T10:30:13.814Z,9.678132
2022-10-05T10:31:13.828Z,9.678127
2022-10-05T10:32:13.892Z,9.678144
2022-10-05T10:33:13.821Z,9.678144
2022-10-05T10:34:13.776Z,9.678141
2022-10-05T10:35:13.819Z,9.678102
2022-10-05T10:36:13.771Z,9.678122
2022-10-05T10:37:13.727Z,9.678107
2022-10-05T10:38:13.736Z,9.678100
2022-10-05T10:39:13.756Z,9.678116
2022-10-05T10:40:13.834Z,9.678110
2022-10-05T10:41:13.762Z,9.678124
2022-10-05T10:42:13.685Z,9.678103
2022-10-05T10:43:13.687Z,9.678117
2022-10-05T10:44:13.709Z,9.678123
2022-10-05T10:45:13.687Z,9.678104
2022-10-05T10:46:13.727Z,9.678100
2022-10-05T10:47:13.656Z,9.678126
2022-10-05T10:48:13.699Z,9.678159
2022-10-05T10:49:13.629Z,9.678144
2022-10-05T10:50:13.646Z,9.678164
2022-10-05T10:51:13.618Z,9.678155
2022-10-05T10:52:13.630Z,9.678148
2022-10-05T10:53:13.660Z,9.678122
2022-10-05T10:54:13.587Z,9.678162
2022-10-05T10:55:13.580Z,9.678164
2022-10-05T10:56:13.614Z,9.678194
2022-10-05T10:57:13.564Z,9.678183
2022-10-05T10:58:16.094Z,9.678148
2022-10-05T10:59:13.561Z,9.678193
2022-10-05T11:00:13.542Z,9.678126
2022-10-05T11:01:13.624Z,9.678094
2022-10-05T11:02:13.555Z,9.678180
2022-10-05T11:03:13.724Z,9.678145
2022-10-05T11:04:13.519Z,9.678149
2022-10-05T11:05:13.498Z,9.678159
2022-10-05T11:06:13.512Z,9.678144
2022-10-05T11:07:13.511Z,9.678177
2022-10-05T11:08:13.474Z,9.678156
2022-10-05T11:09:14.621Z,9.678167
2022-10-05T11:10:13.478Z,9.678151
2022-10-05T11:11:13.464Z,9.678142
2022-10-05T11:12:13.472Z,9.678112
2022-10-05T11:13:13.452Z,9.678143
2022-10-05T11:14:13.447Z,9.678167
2022-10-05T11:15:13.440Z,9.678223
2022-10-05T11:16:15.897Z,9.678179
2022-10-05T11:17:14.433Z,9.678153
2022-10-05T11:18:13.393Z,9.678144
2022-10-05T11:19:13.398Z,9.678140
2022-10-05T11:20:13.481Z,9.678168
2022-10-05T11:21:13.385Z,9.678162
2022-10-05T11:22:13.380Z,9.678175
2022-10-05T11:23:13.382Z,9.678128
2022-10-05T11:24:13.406Z,9.678087
2022-10-05T11:25:13.357Z,9.678146
2022-10-05T11:26:13.340Z,9.678158
2022-10-05T11:27:13.439Z,9.678175
2022-10-05T11:28:14.746Z,9.678141
2022-10-05T11:29:13.366Z,9.678141
2022-10-05T11:30:13.376Z,9.678150
2022-10-05T11:31:13.335Z,9.678203
2022-10-05T11:32:13.362Z,9.678137
2022-10-05T11:33:13.376Z,9.678161
2022-10-05T11:34:13.279Z,9.678147
2022-10-05T11:35:13.289Z,9.678149
2022-10-05T11:36:13.264Z,9.678204
2022-10-05T11:37:13.254Z,9.678205
2022-10-05T11:38:13.247Z,9.678238
2022-10-05T11:39:13.243Z,9.678224
2022-10-05T11:40:13.236Z,9.678180
2022-10-05T11:41:13.244Z,9.678264
2022-10-05T11:42:13.224Z,9.678197
2022-10-05T11:43:13.213Z,9.678160
2022-10-05T11:44:13.200Z,9.678205